This is the latest recevied weather packets stored in our database for station/object N1CTF-9. If no packets are shown the sender has not sent any weather packets the latest 10 day(s).
| Time | Temp. | Humidity | Pressure | Rain* | Wind** | Luminosity | Snow |
|---|---|---|---|---|---|---|---|
| 1777409790 | 22.22° C | 56% | 1011.4 hPa | 0 mm | - | 218 W/m² | - |
| 1777409190 | 22.78° C | 58% | 1011.5 hPa | 0 mm | - | 126 W/m² | - |
| 1777408590 | 21.67° C | 59% | 1011.2 hPa | 0 mm | - | 708 W/m² | - |
| 1777407990 | 21.67° C | 57% | 1011.4 hPa | 0 mm | - | 765 W/m² | - |
| 1777407390 | 21.11° C | 61% | 1011.6 hPa | 0 mm | - | 508 W/m² | - |
| 1777406789 | 22.22° C | 58% | 1011.2 hPa | 0 mm | - | 246 W/m² | - |
| 1777406190 | 21.67° C | 58% | 1011.4 hPa | 0 mm | - | 898 W/m² | - |
| 1777405589 | 21.67° C | 60% | 1011.6 hPa | 0 mm | - | 866 W/m² | - |
| 1777404990 | 21.11° C | 61% | 1011.5 hPa | 0 mm | - | 994 W/m² | - |
| 1777404390 | 21.11° C | 61% | 1011.8 hPa | 0 mm | - | 741 W/m² | - |
| 1777403790 | 20.56° C | 61% | 1012 hPa | 0 mm | - | 100 W/m² | - |
| 1777403190 | 21.11° C | 61% | 1011.9 hPa | 0 mm | - | 906 W/m² | - |
| 1777402590 | 21.11° C | 64% | 1011.9 hPa | 0 mm | - | 971 W/m² | - |
| 1777401990 | 21.11° C | 64% | 1012 hPa | 0 mm | - | 280 W/m² | - |
| 1777401390 | 21.11° C | 62% | 1011.8 hPa | 0 mm | - | 348 W/m² | - |
| 1777400790 | 21.11° C | 64% | 1011.9 hPa | 0 mm | - | 186 W/m² | - |
| 1777400190 | 21.11° C | 63% | 1011.9 hPa | 0 mm | - | 267 W/m² | - |
| 1777399590 | 20.56° C | 64% | 1012.1 hPa | 0 mm | - | 973 W/m² | - |
| 1777398990 | 21.11° C | 66% | 1011.7 hPa | 0 mm | - | 235 W/m² | - |
| 1777398390 | 20.56° C | 65% | 1011.9 hPa | 0 mm | - | 101 W/m² | - |
| 1777397790 | 20° C | 68% | 1011.9 hPa | 0 mm | - | 102 W/m² | - |
| 1777397189 | 21.67° C | 58% | 1011.8 hPa | 0 mm | - | 406 W/m² | - |
| 1777396590 | 21.11° C | 60% | 1012 hPa | 0 mm | - | 113 W/m² | - |
| 1777395990 | 21.11° C | 61% | 1011.9 hPa | 0 mm | - | 108 W/m² | - |
| 1777395390 | 20.56° C | 64% | 1011.9 hPa | 0 mm | - | 113 W/m² | - |
* Rain latest hour (hover to see other rain measurements)
** Current wind speed in m/s (hover to see current wind gust speed)